Time;durP1;ratioP1;P1;durP2;ratioP2;P2;SDS_P1;SDS_P2;PMS_P1;PMS_P2;Temp;Humidity;BMP_temperature;BMP_pressure;BME280_temperature;BME280_humidity;BME280_pressure;Samples;Min_cycle;Max_cycle;Signal;HPM_P1;HPM_P2
2022/02/26 00:00:12;;;;;;;68.35;35.48;;;;;;;-2.52;68.35;97889.81;1846506;77;25749;-87
2022/02/26 00:02:40;;;;;;;77.10;32.98;;;;;;;-2.56;68.34;97882.63;1846372;77;25687;-89
2022/02/26 00:05:08;;;;;;;98.50;37.15;;;;;;;-2.58;68.38;97888.51;1846068;77;28172;-85
2022/02/26 00:07:35;;;;;;;79.12;34.95;;;;;;;-2.61;68.38;97888.73;1846507;76;26227;-89
2022/02/26 00:10:02;;;;;;;138.50;43.48;;;;;;;-2.61;68.32;97884.77;1846609;76;26244;-90
2022/02/26 00:12:31;;;;;;;135.95;44.93;;;;;;;-2.66;68.33;97892.23;1846450;76;25726;-89
2022/02/26 00:14:58;;;;;;;150.45;57.80;;;;;;;-2.71;68.38;97887.77;1850636;76;25781;-90
2022/02/26 00:17:27;;;;;;;139.45;55.63;;;;;;;-2.75;68.48;97896.03;1855244;75;27394;-90
2022/02/26 00:19:53;;;;;;;371.90;103.27;;;;;;;-2.79;68.54;97892.80;1855272;75;25644;-91
2022/02/26 00:22:20;;;;;;;275.62;85.05;;;;;;;-2.85;68.60;97890.61;1830523;77;25748;-88
2022/02/26 00:24:47;;;;;;;122.35;46.50;;;;;;;-2.89;68.70;97891.79;1855337;75;25815;-90
2022/02/26 00:27:13;;;;;;;93.12;40.17;;;;;;;-2.91;68.74;97892.41;1855380;77;25646;-89
2022/02/26 00:29:40;;;;;;;75.17;36.03;;;;;;;-2.93;68.81;97895.64;1854439;77;27527;-89
2022/02/26 00:32:07;;;;;;;75.50;33.98;;;;;;;-2.95;68.92;97889.63;1855362;77;25710;-86
2022/02/26 00:34:34;;;;;;;65.00;30.95;;;;;;;-3.03;68.87;97890.22;1855301;77;25771;-89
2022/02/26 00:37:00;;;;;;;60.90;33.53;;;;;;;-3.09;68.99;97903.86;1855674;77;25846;-89
2022/02/26 00:39:27;;;;;;;64.12;31.30;;;;;;;-3.08;69.14;97900.75;1856159;77;25684;-89
2022/02/26 00:41:53;;;;;;;63.25;31.55;;;;;;;-3.10;69.20;97903.50;1828798;77;27459;-91
2022/02/26 00:44:20;;;;;;;66.72;33.15;;;;;;;-3.09;69.23;97901.70;1821618;77;25635;-90
2022/02/26 00:46:47;;;;;;;54.40;29.48;;;;;;;-3.07;69.22;97909.88;1821165;77;25799;-89
2022/02/26 00:51:59;;;;;;;58.63;29.23;;;;;;;-3.05;69.26;97908.45;1821402;78;25748;-90
2022/02/26 00:54:25;;;;;;;58.13;30.05;;;;;;;-3.06;69.14;97905.44;1821567;77;27165;-90
2022/02/26 00:56:52;;;;;;;64.62;31.45;;;;;;;-3.07;69.24;97907.23;1821632;78;25778;-90
2022/02/26 00:59:19;;;;;;;60.05;32.67;;;;;;;-3.09;69.20;97907.83;1821725;77;25696;-86
2022/02/26 01:01:45;;;;;;;63.75;33.40;;;;;;;-3.13;69.17;97905.52;1821513;77;26443;-90
2022/02/26 01:04:12;;;;;;;56.90;31.93;;;;;;;-3.17;69.19;97900.96;1821075;78;26328;-90
2022/02/26 01:06:39;;;;;;;61.08;32.45;;;;;;;-3.20;69.22;97903.83;1821674;77;28404;-90
2022/02/26 01:09:06;;;;;;;64.65;32.78;;;;;;;-3.21;69.23;97905.25;1821697;78;25606;-89
2022/02/26 01:11:33;;;;;;;60.83;30.40;;;;;;;-3.22;69.24;97904.89;1821540;77;25669;-90
2022/02/26 01:14:00;;;;;;;76.67;33.88;;;;;;;-3.22;69.25;97904.89;1821702;77;25689;-90
2022/02/26 01:16:27;;;;;;;87.35;32.93;;;;;;;-3.22;69.29;97905.73;1821328;77;25759;-90
2022/02/26 01:18:53;;;;;;;81.75;34.43;;;;;;;-3.21;69.20;97898.66;1821741;77;28254;-90
2022/02/26 01:21:20;;;;;;;80.47;32.48;;;;;;;-3.24;69.17;97898.88;1821557;77;25716;-90
2022/02/26 01:23:48;;;;;;;54.63;26.65;;;;;;;-3.28;69.14;97910.16;1821723;77;25667;-90
2022/02/26 01:26:18;;;;;;;51.05;25.43;;;;;;;-3.29;69.15;97908.47;1821708;77;25889;-90
2022/02/26 01:28:45;;;;;;;50.43;24.40;;;;;;;-3.31;69.16;97900.66;1821439;77;25658;-90
2022/02/26 01:31:12;;;;;;;48.85;24.12;;;;;;;-3.33;69.17;97899.93;1821519;77;27585;-89
2022/02/26 01:33:39;;;;;;;49.98;24.05;;;;;;;-3.34;69.20;97906.16;1821633;77;25801;-90
2022/02/26 01:36:07;;;;;;;48.78;24.72;;;;;;;-3.34;69.13;97909.27;1821671;77;26556;-90
2022/02/26 01:38:34;;;;;;;50.95;25.00;;;;;;;-3.34;69.16;97908.80;1821775;77;25768;-90
2022/02/26 01:41:02;;;;;;;46.63;22.82;;;;;;;-3.36;69.14;97908.55;1821665;77;25694;-90
2022/02/26 01:43:28;;;;;;;46.37;22.90;;;;;;;-3.38;69.09;97907.33;1821582;77;27498;-90
2022/02/26 01:45:55;;;;;;;44.85;23.02;;;;;;;-3.41;69.06;97910.70;1821355;77;25679;-89
2022/02/26 01:48:22;;;;;;;44.13;22.20;;;;;;;-3.45;69.07;97907.43;1821604;77;25746;-90
2022/02/26 01:50:49;;;;;;;40.40;21.40;;;;;;;-3.47;69.18;97906.70;1820832;77;25789;-89
2022/02/26 01:53:15;;;;;;;48.25;23.07;;;;;;;-3.47;69.25;97910.66;1820558;77;25791;-90
2022/02/26 01:55:42;;;;;;;43.98;21.95;;;;;;;-3.46;69.14;97908.38;1820998;77;28121;-91
2022/02/26 01:58:09;;;;;;;44.95;22.55;;;;;;;-3.48;69.10;97906.33;1821028;77;25998;-91
2022/02/26 02:00:36;;;;;;;41.20;21.45;;;;;;;-3.50;69.12;97902.95;1821281;77;25636;-91
2022/02/26 02:03:02;;;;;;;52.30;24.82;;;;;;;-3.53;69.19;97909.80;1821765;77;25855;-88
2022/02/26 02:05:31;;;;;;;70.10;27.27;;;;;;;-3.54;69.14;97907.27;1821560;77;26267;-91
2022/02/26 02:07:58;;;;;;;51.98;23.57;;;;;;;-3.56;69.10;97912.65;1821604;78;27198;-91
2022/02/26 02:10:26;;;;;;;45.00;19.15;;;;;;;-3.62;69.06;97920.19;1820388;77;25701;-89
2022/02/26 02:12:52;;;;;;;35.03;18.92;;;;;;;-3.68;69.02;97921.45;1821636;77;25787;-90
2022/02/26 02:15:38;;;;;;;33.23;19.30;;;;;;;-3.71;69.13;97922.52;1819069;77;26542;-91
2022/02/26 02:18:08;;;;;;;42.43;20.75;;;;;;;-3.73;69.19;97920.45;1812810;77;25746;-89
2022/02/26 02:20:36;;;;;;;40.50;19.12;;;;;;;-3.75;69.24;97925.50;1812984;77;27617;-89
2022/02/26 02:23:03;;;;;;;33.73;18.05;;;;;;;-3.78;69.17;97925.71;1812950;77;25793;-89
2022/02/26 02:25:33;;;;;;;31.02;16.97;;;;;;;-3.82;69.24;97926.88;1812910;77;25784;-89
2022/02/26 02:28:01;;;;;;;32.38;17.10;;;;;;;-3.88;69.29;97919.41;1813074;77;25749;-89
2022/02/26 02:30:29;;;;;;;39.50;17.92;;;;;;;-3.91;69.42;97922.27;1813081;79;25877;-89
2022/02/26 02:32:58;;;;;;;32.15;17.37;;;;;;;-3.92;69.46;97918.78;1812412;77;28422;-89
2022/02/26 02:35:31;;;;;;;33.05;17.40;;;;;;;-3.91;69.45;97924.90;1812404;77;25961;-89
2022/02/26 02:38:02;;;;;;;33.80;16.40;;;;;;;-3.93;69.51;97925.48;1813026;77;25228;-88
2022/02/26 02:40:29;;;;;;;37.38;17.32;;;;;;;-4.00;69.53;97914.53;1780810;79;25853;-89
2022/02/26 02:42:56;;;;;;;38.42;17.85;;;;;;;-3.94;69.55;97929.06;1746347;80;25799;-88
2022/02/26 02:45:23;;;;;;;35.33;17.02;;;;;;;-3.96;69.58;97930.48;1781084;79;27519;-89
2022/02/26 02:47:50;;;;;;;32.58;16.23;;;;;;;-3.96;69.57;97934.91;1745936;80;25851;-89
2022/02/26 02:50:17;;;;;;;34.40;16.80;;;;;;;-3.95;69.54;97930.02;1780397;80;25210;-89
2022/02/26 02:52:47;;;;;;;28.27;14.90;;;;;;;-3.95;69.54;97931.33;1745360;80;25787;-89
2022/02/26 02:55:14;;;;;;;33.60;15.88;;;;;;;-3.95;69.55;97936.61;1780676;79;25841;-89
2022/02/26 02:57:43;;;;;;;29.85;16.10;;;;;;;-4.00;69.51;97939.11;1781008;79;27600;-89
2022/02/26 03:00:12;;;;;;;33.92;16.37;;;;;;;-4.03;69.60;97933.20;1780774;79;26354;-89
2022/02/26 03:02:39;;;;;;;36.03;17.23;;;;;;;-4.08;69.62;97937.47;1781155;80;25688;-89
2022/02/26 03:05:06;;;;;;;29.20;15.93;;;;;;;-4.12;69.65;97938.66;1781046;80;25715;-89
2022/02/26 03:07:33;;;;;;;33.70;16.35;;;;;;;-4.13;69.71;97938.77;1781144;79;25779;-90
2022/02/26 03:10:00;;;;;;;32.67;17.12;;;;;;;-4.15;69.68;97934.91;1746251;80;27628;-88
2022/02/26 03:12:27;;;;;;;35.50;17.65;;;;;;;-4.22;69.68;97938.91;1781228;80;25762;-90
2022/02/26 03:14:53;;;;;;;34.88;17.05;;;;;;;-4.24;69.82;97939.52;1781289;79;25576;-90
2022/02/26 03:17:20;;;;;;;32.78;15.23;;;;;;;-4.24;69.87;97936.88;1746333;81;25787;-89
2022/02/26 03:19:49;;;;;;;29.05;15.48;;;;;;;-4.24;69.89;97932.08;1781362;80;25663;-90
2022/02/26 03:22:19;;;;;;;25.70;14.47;;;;;;;-4.25;70.00;97941.78;1781544;78;28202;-90
2022/02/26 03:24:46;;;;;;;24.85;13.90;;;;;;;-4.27;70.03;97941.03;1781306;79;25675;-88
2022/02/26 03:27:12;;;;;;;30.15;15.00;;;;;;;-4.28;70.05;97941.98;1746862;80;25203;-89
2022/02/26 03:29:39;;;;;;;34.78;15.68;;;;;;;-4.25;70.08;97943.09;1809937;77;25750;-89
2022/02/26 03:32:08;;;;;;;29.95;15.32;;;;;;;-4.24;70.05;97947.42;1814144;79;25808;-90
2022/02/26 03:34:35;;;;;;;26.97;14.98;;;;;;;-4.21;69.98;97948.98;1814111;77;27402;-90
2022/02/26 03:37:03;;;;;;;28.90;15.05;;;;;;;-4.23;69.88;97946.48;1814759;79;26937;-90
2022/02/26 03:39:33;;;;;;;26.80;13.88;;;;;;;-4.24;69.84;97951.84;1814445;77;25832;-90
2022/02/26 03:42:02;;;;;;;29.72;14.85;;;;;;;-4.25;69.79;97951.01;1815259;77;25682;-86
2022/02/26 03:44:30;;;;;;;31.95;13.78;;;;;;;-4.30;69.70;97955.73;1815059;77;25676;-90
2022/02/26 03:46:58;;;;;;;27.35;14.65;;;;;;;-4.35;69.70;97963.14;1814887;77;27360;-90
2022/02/26 03:49:26;;;;;;;30.88;14.38;;;;;;;-4.38;69.71;97963.34;1815197;79;25993;-89
2022/02/26 03:51:53;;;;;;;27.05;14.03;;;;;;;-4.41;69.71;97966.17;1815370;78;25232;-89
2022/02/26 03:54:20;;;;;;;27.32;13.93;;;;;;;-4.44;69.75;97967.23;1815533;79;25918;-90
2022/02/26 03:56:47;;;;;;;30.10;14.33;;;;;;;-4.49;69.74;97964.55;1816095;79;25653;-88
2022/02/26 03:59:14;;;;;;;26.82;15.08;;;;;;;-4.52;69.80;97968.70;1816134;79;27555;-90
2022/02/26 04:01:40;;;;;;;30.55;15.93;;;;;;;-4.52;69.93;97975.30;1816702;78;25717;-90
2022/02/26 04:04:07;;;;;;;26.42;14.85;;;;;;;-4.47;69.98;97979.79;1816811;79;25236;-90
2022/02/26 04:06:34;;;;;;;27.02;14.65;;;;;;;-4.44;69.98;97984.83;1816507;77;25762;-91
2022/02/26 04:09:02;;;;;;;33.73;16.32;;;;;;;-4.45;69.91;97991.04;1816491;79;25855;-90
2022/02/26 04:11:29;;;;;;;28.30;16.52;;;;;;;-4.51;69.91;97994.11;1816230;79;27464;-84
2022/02/26 04:13:56;;;;;;;30.70;16.87;;;;;;;-4.59;69.99;97997.75;1815493;77;25247;-89
2022/02/26 04:16:22;;;;;;;31.80;17.52;;;;;;;-4.66;70.13;97996.45;1814889;77;25629;-86
2022/02/26 04:18:49;;;;;;;28.50;16.82;;;;;;;-4.72;70.20;97993.30;1814678;77;25726;-90
2022/02/26 04:21:16;;;;;;;37.65;17.73;;;;;;;-4.66;70.35;98000.41;1814695;77;25722;-81
2022/02/26 04:23:42;;;;;;;33.20;17.30;;;;;;;-4.63;70.32;98006.79;1814323;77;27508;-88
2022/02/26 04:26:09;;;;;;;43.83;17.95;;;;;;;-4.64;70.35;98004.63;1813765;77;25706;-90
2022/02/26 04:28:36;;;;;;;41.13;18.35;;;;;;;-4.72;70.29;98006.94;1813525;77;25791;-91
2022/02/26 04:31:02;;;;;;;39.03;17.57;;;;;;;-4.77;70.34;98019.09;1813448;78;25719;-84
2022/02/26 04:33:29;;;;;;;37.55;18.23;;;;;;;-4.73;70.43;98028.95;1814477;78;25694;-90
2022/02/26 04:35:58;;;;;;;32.73;17.20;;;;;;;-4.68;70.36;98025.52;1814581;77;27511;-90
2022/02/26 04:38:25;;;;;;;35.85;17.50;;;;;;;-4.68;70.23;98022.05;1814354;77;25883;-88
2022/02/26 04:40:52;;;;;;;44.45;18.02;;;;;;;-4.69;70.30;98034.84;1813274;77;25365;-91
2022/02/26 04:43:19;;;;;;;57.03;24.07;;;;;;;-4.72;70.29;98035.45;1813253;77;25849;-91
2022/02/26 04:45:45;;;;;;;44.27;20.08;;;;;;;-4.74;70.24;98038.64;1813301;77;25666;-91
2022/02/26 04:48:12;;;;;;;41.08;21.50;;;;;;;-4.79;70.22;98049.09;1813231;77;27400;-91
2022/02/26 04:50:38;;;;;;;37.93;20.50;;;;;;;-4.80;70.38;98054.84;1813109;77;25749;-89
2022/02/26 04:53:05;;;;;;;44.98;23.83;;;;;;;-4.82;70.33;98054.09;1811578;77;25614;-82
2022/02/26 04:55:32;;;;;;;39.15;21.35;;;;;;;-4.83;70.44;98060.80;1812260;77;25855;-91
2022/02/26 04:57:58;;;;;;;37.58;19.70;;;;;;;-4.82;70.50;98060.67;1813087;77;25232;-85
2022/02/26 05:00:25;;;;;;;38.15;20.55;;;;;;;-4.82;70.51;98054.56;1813110;77;27543;-82
2022/02/26 05:02:51;;;;;;;39.15;19.32;;;;;;;-4.84;70.50;98063.91;1812873;77;25789;-84
2022/02/26 05:05:18;;;;;;;46.75;19.75;;;;;;;-4.82;70.56;98067.25;1813086;77;25702;-92
2022/02/26 05:07:45;;;;;;;42.55;21.12;;;;;;;-4.89;70.46;98064.66;1813026;77;25694;-83
2022/02/26 05:10:11;;;;;;;53.05;24.52;;;;;;;-4.89;70.60;98066.45;1813006;77;25698;-84
2022/02/26 05:12:38;;;;;;;46.18;23.77;;;;;;;-4.85;70.63;98072.75;1813321;77;28090;-86
2022/02/26 05:15:05;;;;;;;36.60;20.37;;;;;;;-4.82;70.60;98077.79;1812995;78;25936;-85
2022/02/26 05:17:32;;;;;;;47.88;22.15;;;;;;;-4.78;70.58;98083.24;1819460;77;25741;-92
2022/02/26 05:19:59;;;;;;;45.08;20.60;;;;;;;-4.77;70.56;98086.25;1821715;77;25733;-91
2022/02/26 05:22:26;;;;;;;42.10;20.20;;;;;;;-4.81;70.54;98089.17;1821829;77;25695;-85
2022/02/26 05:24:52;;;;;;;42.40;19.60;;;;;;;-4.87;70.50;98096.17;1821588;77;27515;-83
2022/02/26 05:27:19;;;;;;;43.48;20.85;;;;;;;-4.88;70.63;98088.73;1821875;77;25907;-88
2022/02/26 05:29:45;;;;;;;47.95;22.75;;;;;;;-4.87;70.61;98095.70;1821557;77;25285;-93
2022/02/26 05:32:12;;;;;;;46.30;22.00;;;;;;;-4.89;70.60;98097.58;1821996;77;25902;-94
2022/02/26 05:34:39;;;;;;;57.98;23.62;;;;;;;-4.90;70.66;98098.52;1822004;77;25505;-93
2022/02/26 05:37:05;;;;;;;50.55;23.42;;;;;;;-4.88;70.70;98098.42;1821927;77;27329;-85
2022/02/26 05:39:32;;;;;;;51.60;25.15;;;;;;;-4.89;70.72;98105.48;1821913;77;25739;-92
2022/02/26 05:41:58;;;;;;;49.35;22.67;;;;;;;-4.91;70.71;98108.68;1822009;77;25230;-91
2022/02/26 05:44:25;;;;;;;49.00;23.22;;;;;;;-4.93;70.79;98108.39;1822094;78;25762;-91
2022/02/26 05:46:52;;;;;;;51.05;23.50;;;;;;;-4.95;70.77;98113.76;1821924;77;25821;-84
2022/02/26 05:49:20;;;;;;;51.55;23.98;;;;;;;-4.92;70.83;98117.52;1821780;77;27397;-93
2022/02/26 05:51:46;;;;;;;51.53;22.93;;;;;;;-4.89;70.85;98120.44;1821810;77;25713;-92
2022/02/26 05:54:13;;;;;;;67.15;28.75;;;;;;;-4.86;70.81;98122.41;1821804;77;25685;-85
2022/02/26 05:56:39;;;;;;;78.80;36.77;;;;;;;-4.84;70.72;98125.80;1821742;77;25811;-88
2022/02/26 05:59:06;;;;;;;105.75;45.50;;;;;;;-4.82;70.71;98129.15;1821683;77;25748;-93
2022/02/26 06:01:32;;;;;;;101.38;47.73;;;;;;;-4.79;70.64;98128.95;1821823;77;27487;-92
2022/02/26 06:03:59;;;;;;;104.38;45.85;;;;;;;-4.81;70.58;98126.89;1821952;77;25640;-94
2022/02/26 06:06:26;;;;;;;86.10;39.35;;;;;;;-4.80;70.60;98131.22;1822008;77;25707;-93
2022/02/26 06:08:52;;;;;;;74.42;38.23;;;;;;;-4.78;70.65;98137.70;1821990;77;25682;-93
2022/02/26 06:11:22;;;;;;;75.30;34.85;;;;;;;-4.77;70.73;98140.72;1821994;77;26488;-91
2022/02/26 06:13:48;;;;;;;76.80;36.55;;;;;;;-4.80;70.71;98141.75;1821925;77;27540;-93
2022/02/26 06:16:16;;;;;;;76.85;36.65;;;;;;;-4.78;70.71;98142.50;1821419;77;25236;-84
2022/02/26 06:18:43;;;;;;;69.97;33.00;;;;;;;-4.74;70.79;98145.33;1822049;77;25658;-94
2022/02/26 06:21:11;;;;;;;64.07;29.75;;;;;;;-4.70;70.82;98144.63;1821745;77;25766;-93
2022/02/26 06:23:38;;;;;;;63.58;31.95;;;;;;;-4.66;70.86;98142.66;1822017;77;25693;-93
2022/02/26 06:26:05;;;;;;;64.53;31.20;;;;;;;-4.61;70.88;98154.59;1822265;77;27195;-88
2022/02/26 06:28:31;;;;;;;67.17;32.90;;;;;;;-4.57;70.93;98161.34;1822177;77;25255;-92
2022/02/26 06:30:58;;;;;;;54.58;28.40;;;;;;;-4.53;71.02;98160.68;1821857;77;25785;-84
2022/02/26 06:33:25;;;;;;;60.83;31.35;;;;;;;-4.47;71.12;98157.66;1822227;77;25778;-88
2022/02/26 06:35:52;;;;;;;77.60;33.70;;;;;;;-4.43;71.15;98157.81;1822575;77;25525;-84
2022/02/26 06:38:19;;;;;;;93.03;40.83;;;;;;;-4.37;71.10;98164.02;1821912;77;27371;-92
2022/02/26 06:40:45;;;;;;;109.65;43.85;;;;;;;-4.33;71.17;98160.21;1822189;77;26100;-92
2022/02/26 06:43:12;;;;;;;109.10;45.83;;;;;;;-4.28;71.17;98159.45;1822701;77;25335;-91
2022/02/26 06:45:39;;;;;;;113.20;47.55;;;;;;;-4.24;71.19;98164.06;1822241;77;25657;-92
2022/02/26 06:48:05;;;;;;;116.15;47.83;;;;;;;-4.17;71.26;98169.28;1822142;77;25773;-91
2022/02/26 06:50:32;;;;;;;108.60;49.23;;;;;;;-4.12;71.25;98169.36;1822191;78;27244;-92
2022/02/26 06:52:59;;;;;;;109.90;51.00;;;;;;;-4.06;71.39;98175.53;1822901;77;25750;-88
2022/02/26 06:55:26;;;;;;;107.00;50.00;;;;;;;-4.01;71.46;98175.23;1822800;77;25816;-92
2022/02/26 06:57:53;;;;;;;99.75;46.68;;;;;;;-3.93;71.49;98174.71;1822656;77;25705;-88
2022/02/26 07:00:20;;;;;;;96.02;41.10;;;;;;;-3.85;71.51;98167.97;1822667;77;25733;-92
2022/02/26 07:02:46;;;;;;;84.40;40.20;;;;;;;-3.75;71.58;98173.49;1822592;77;27412;-94
2022/02/26 07:05:13;;;;;;;83.92;39.38;;;;;;;-3.66;71.53;98175.02;1822653;78;25255;-91
2022/02/26 07:07:39;;;;;;;118.08;50.50;;;;;;;-3.58;71.62;98173.17;1823075;77;25768;-83
2022/02/26 07:10:07;;;;;;;164.07;62.17;;;;;;;-3.51;71.55;98175.77;1822800;77;25824;-88
2022/02/26 07:12:33;;;;;;;155.82;62.85;;;;;;;-3.45;71.56;98176.66;1823006;77;25782;-92
2022/02/26 07:15:00;;;;;;;151.97;62.55;;;;;;;-3.35;71.62;98177.70;1823179;77;27424;-87
2022/02/26 07:17:27;;;;;;;125.25;55.00;;;;;;;-3.24;71.68;98180.07;1821852;77;25736;-90
2022/02/26 07:19:54;;;;;;;101.92;46.88;;;;;;;-3.16;71.71;98185.69;1821945;77;25874;-91
2022/02/26 07:22:20;;;;;;;96.65;44.93;;;;;;;-3.12;71.81;98181.38;1811252;77;26638;-88
2022/02/26 07:24:47;;;;;;;84.32;39.85;;;;;;;-3.04;71.81;98180.86;1816210;77;25708;-92
2022/02/26 07:27:16;;;;;;;80.22;37.28;;;;;;;-2.94;71.86;98191.98;1855649;75;27556;-91
2022/02/26 07:29:42;;;;;;;74.05;36.55;;;;;;;-2.82;71.87;98196.88;1854700;76;25896;-91
2022/02/26 07:32:09;;;;;;;75.62;35.85;;;;;;;-2.71;71.78;98198.75;1855459;77;25672;-87
2022/02/26 07:34:36;;;;;;;86.45;39.20;;;;;;;-2.62;71.69;98195.44;1855416;75;25955;-90
2022/02/26 07:37:03;;;;;;;80.55;38.48;;;;;;;-2.55;71.63;98197.55;1855409;77;25715;-86
2022/02/26 07:39:30;;;;;;;81.57;39.27;;;;;;;-2.41;71.66;98207.58;1855246;75;27584;-88
2022/02/26 07:41:56;;;;;;;81.20;38.88;;;;;;;-2.28;71.66;98209.70;1855359;77;25721;-89
2022/02/26 07:44:23;;;;;;;68.00;32.03;;;;;;;-2.13;71.58;98208.58;1855397;75;25766;-89
2022/02/26 07:46:49;;;;;;;56.60;28.38;;;;;;;-2.07;71.30;98205.50;1855362;75;26672;-87
2022/02/26 07:49:16;;;;;;;55.20;28.80;;;;;;;-1.98;71.18;98206.61;1855453;77;25801;-89
2022/02/26 07:51:42;;;;;;;60.98;29.52;;;;;;;-1.88;71.25;98208.45;1855358;75;27345;-89
2022/02/26 07:54:09;;;;;;;63.23;32.35;;;;;;;-1.74;71.29;98207.42;1855235;75;25788;-89
2022/02/26 07:56:36;;;;;;;69.67;32.60;;;;;;;-1.58;71.31;98209.77;1855209;77;25673;-87
2022/02/26 07:59:02;;;;;;;72.50;33.92;;;;;;;-1.41;71.22;98211.11;1854713;75;25779;-88
2022/02/26 08:01:29;;;;;;;67.00;32.63;;;;;;;-1.24;71.10;98212.84;1855459;76;25679;-88
2022/02/26 08:03:55;;;;;;;65.30;32.50;;;;;;;-1.08;70.94;98211.16;1855217;77;28402;-90
2022/02/26 08:06:22;;;;;;;64.05;30.57;;;;;;;-0.92;70.76;98210.81;1852029;75;25748;-89
2022/02/26 08:08:49;;;;;;;76.12;34.70;;;;;;;-0.81;70.66;98210.33;1818178;77;26432;-85
2022/02/26 08:11:15;;;;;;;74.10;36.90;;;;;;;-0.66;70.53;98213.58;1855023;77;25835;-87
2022/02/26 08:13:42;;;;;;;64.75;34.00;;;;;;;-0.52;70.40;98213.81;1855493;75;25710;-88
2022/02/26 08:16:08;;;;;;;76.87;41.18;;;;;;;-0.34;70.27;98222.08;1855277;77;28250;-87
2022/02/26 08:18:35;;;;;;;85.90;43.35;;;;;;;-0.09;70.21;98220.46;1847915;77;25731;-88
2022/02/26 08:21:03;;;;;;;86.05;39.88;;;;;;;0.08;70.05;98221.27;1846013;77;25281;-83
2022/02/26 08:23:30;;;;;;;80.87;38.53;;;;;;;0.23;69.69;98219.16;1846333;77;25852;-87
2022/02/26 08:25:57;;;;;;;65.25;32.60;;;;;;;0.41;69.55;98213.62;1846343;77;25716;-86
2022/02/26 08:28:24;;;;;;;51.53;28.25;;;;;;;0.58;69.27;98210.41;1846742;77;27554;-87
2022/02/26 08:30:50;;;;;;;47.93;26.07;;;;;;;0.78;69.12;98210.04;1846969;77;25802;-85
2022/02/26 08:33:17;;;;;;;44.40;24.72;;;;;;;0.98;68.99;98205.66;1846949;77;25633;-86
2022/02/26 08:35:43;;;;;;;42.85;23.57;;;;;;;1.18;69.04;98214.11;1846312;77;25774;-88
2022/02/26 08:38:10;;;;;;;49.27;24.30;;;;;;;1.36;68.63;98211.64;1846367;76;25759;-88
2022/02/26 08:40:37;;;;;;;41.90;22.80;;;;;;;1.41;68.18;98212.95;1846268;77;28373;-87
2022/02/26 08:43:03;;;;;;;39.05;21.82;;;;;;;1.42;68.01;98215.12;1846002;77;25662;-88
2022/02/26 08:45:30;;;;;;;36.88;19.65;;;;;;;1.53;67.94;98217.67;1846278;76;25699;-87
2022/02/26 08:47:56;;;;;;;31.33;17.62;;;;;;;1.64;67.47;98222.05;1846314;77;26280;-88
2022/02/26 08:50:23;;;;;;;29.77;16.50;;;;;;;1.72;67.20;98220.38;1819000;76;25686;-87
2022/02/26 08:52:50;;;;;;;26.55;13.80;;;;;;;1.76;67.04;98225.80;1805565;77;27460;-85
2022/02/26 08:55:17;;;;;;;24.90;12.80;;;;;;;1.85;67.06;98228.11;1804481;77;25693;-86
2022/02/26 08:57:43;;;;;;;23.18;13.58;;;;;;;2.07;66.87;98233.69;1808160;77;25306;-87
2022/02/26 09:00:12;;;;;;;27.00;15.28;;;;;;;2.29;66.72;98232.13;1805947;77;25739;-86
2022/02/26 09:02:38;;;;;;;24.50;12.53;;;;;;;2.45;66.38;98229.72;1812608;78;25649;-87
2022/02/26 09:05:06;;;;;;;22.50;12.47;;;;;;;2.66;66.05;98234.05;1812894;77;28240;-86
2022/02/26 09:07:33;;;;;;;25.17;14.33;;;;;;;2.80;65.80;98233.62;1812815;77;25694;-87
2022/02/26 09:09:59;;;;;;;26.17;15.28;;;;;;;2.93;65.63;98235.49;1812883;77;25748;-87
2022/02/26 09:12:26;;;;;;;22.13;12.78;;;;;;;3.01;65.63;98236.97;1802831;79;25834;-87
2022/02/26 09:14:53;;;;;;;23.95;12.55;;;;;;;3.06;65.12;98240.52;1816626;77;26366;-87
2022/02/26 09:17:20;;;;;;;21.95;11.85;;;;;;;3.11;64.88;98243.61;1802285;77;28661;-86
2022/02/26 09:19:46;;;;;;;21.30;11.93;;;;;;;3.13;64.54;98244.31;1812794;78;25699;-87
2022/02/26 09:22:13;;;;;;;21.55;11.80;;;;;;;3.15;64.65;98244.98;1815645;77;25306;-86
2022/02/26 09:24:40;;;;;;;23.30;12.63;;;;;;;3.19;64.29;98243.23;1835122;77;25907;-87
2022/02/26 09:27:06;;;;;;;23.98;13.13;;;;;;;3.22;64.18;98258.95;1828442;77;25703;-86
2022/02/26 09:29:33;;;;;;;24.87;13.05;;;;;;;3.25;64.16;98253.34;1813018;77;27617;-86
2022/02/26 09:32:00;;;;;;;22.22;11.70;;;;;;;3.32;64.02;98248.25;1812994;77;26013;-85
2022/02/26 09:34:28;;;;;;;23.62;13.22;;;;;;;3.38;63.51;98250.84;1813033;78;26188;-86
2022/02/26 09:36:55;;;;;;;29.37;14.00;;;;;;;3.35;63.32;98259.12;1813051;77;25743;-85
2022/02/26 09:39:22;;;;;;;35.55;14.47;;;;;;;3.45;63.34;98260.77;1813047;77;25725;-86
2022/02/26 09:41:50;;;;;;;25.17;12.70;;;;;;;3.75;63.66;98273.00;1812911;78;27424;-86
2022/02/26 09:44:18;;;;;;;29.32;14.87;;;;;;;4.33;63.77;98271.37;1812870;77;25832;-86
2022/02/26 09:46:45;;;;;;;17.98;9.95;;;;;;;4.82;62.90;98275.84;1812893;77;25666;-86
2022/02/26 09:49:11;;;;;;;25.92;12.30;;;;;;;4.98;61.85;98274.62;1812839;77;25826;-86
2022/02/26 09:51:43;;;;;;;23.55;11.28;;;;;;;5.00;61.70;98279.33;1809531;77;25725;-86
2022/02/26 09:54:10;;;;;;;24.87;11.22;;;;;;;5.03;61.56;98273.67;1809739;77;27394;-86
2022/02/26 09:56:38;;;;;;;21.07;12.68;;;;;;;5.04;61.30;98279.37;1803054;77;25753;-86
2022/02/26 09:59:05;;;;;;;20.48;12.25;;;;;;;4.89;60.63;98282.25;1804513;77;25752;-84
2022/02/26 10:01:32;;;;;;;24.67;13.25;;;;;;;4.66;60.98;98286.73;1846058;76;26649;-86
2022/02/26 10:04:11;;;;;;;21.05;9.60;;;;;;;4.65;61.02;98291.73;1845973;76;25639;-86
2022/02/26 10:06:38;;;;;;;21.73;10.25;;;;;;;4.65;60.80;98294.41;1846183;76;27464;-85
2022/02/26 10:09:14;;;;;;;19.17;10.25;;;;;;;4.53;60.62;98294.28;1838089;77;25711;-87
2022/02/26 10:11:42;;;;;;;22.27;10.82;;;;;;;4.42;60.71;98302.53;1845829;76;25687;-86
2022/02/26 10:14:17;;;;;;;21.10;11.53;;;;;;;4.36;60.77;98303.11;1845750;77;26592;-85
2022/02/26 10:16:55;;;;;;;25.55;12.78;;;;;;;4.35;60.71;98303.61;1845551;77;25724;-86
2022/02/26 10:19:31;;;;;;;21.23;12.30;;;;;;;4.35;60.81;98305.44;1852472;77;27380;-86
2022/02/26 10:22:01;;;;;;;23.77;12.82;;;;;;;4.33;60.54;98308.30;1854128;75;25885;-86
2022/02/26 10:24:28;;;;;;;24.15;14.45;;;;;;;4.30;60.52;98310.41;1854933;77;25743;-87
2022/02/26 10:27:00;;;;;;;24.43;13.28;;;;;;;4.26;60.40;98307.19;1854768;77;25746;-86
2022/02/26 10:29:28;;;;;;;27.27;15.15;;;;;;;4.24;60.36;98313.17;1855002;75;26183;-86
2022/02/26 10:31:58;;;;;;;28.05;15.40;;;;;;;4.23;60.38;98314.16;1854754;75;27364;-86
2022/02/26 10:34:40;;;;;;;23.57;13.05;;;;;;;4.13;60.44;98312.54;1854750;77;25672;-86
2022/02/26 10:37:13;;;;;;;27.37;13.45;;;;;;;4.14;60.42;98314.22;1855038;77;25742;-86
2022/02/26 10:39:49;;;;;;;24.52;13.05;;;;;;;4.20;60.45;98324.33;1854825;76;26458;-85
2022/02/26 10:42:30;;;;;;;24.60;11.28;;;;;;;4.23;60.52;98324.02;1854676;75;25811;-86
2022/02/26 10:45:05;;;;;;;21.07;10.78;;;;;;;4.24;60.21;98329.70;1854569;76;28016;-86
2022/02/26 10:47:36;;;;;;;18.55;10.13;;;;;;;4.07;59.93;98335.37;1841627;75;25671;-86
2022/02/26 10:50:21;;;;;;;19.77;10.35;;;;;;;3.89;60.11;98328.61;1834759;75;25832;-86
2022/02/26 10:53:00;;;;;;;23.80;9.95;;;;;;;3.92;60.45;98331.00;1833742;77;26320;-85
2022/02/26 10:55:59;;;;;;;21.97;9.53;;;;;;;4.03;60.26;98331.79;1842628;76;25688;-85
2022/02/26 10:58:28;;;;;;;20.88;10.32;;;;;;;4.12;59.90;98332.23;1799745;79;27427;-87
2022/02/26 11:01:04;;;;;;;25.25;11.43;;;;;;;4.18;59.84;98326.31;1799789;79;25334;-86
2022/02/26 11:03:32;;;;;;;19.52;9.58;;;;;;;4.19;60.02;98329.33;1799836;79;25799;-86
2022/02/26 11:05:58;;;;;;;22.75;10.60;;;;;;;4.20;60.27;98335.02;1799959;79;25888;-86
2022/02/26 11:08:25;;;;;;;22.58;10.20;;;;;;;4.26;60.17;98329.06;1799985;79;25803;-86
2022/02/26 11:10:53;;;;;;;24.00;10.05;;;;;;;4.37;59.98;98328.86;1799949;79;27534;-87
2022/02/26 11:13:21;;;;;;;20.02;9.65;;;;;;;4.54;59.77;98333.91;1799716;79;26529;-87
2022/02/26 11:15:50;;;;;;;26.93;14.28;;;;;;;4.62;59.04;98332.64;1799796;79;26414;-86
2022/02/26 11:18:19;;;;;;;21.15;11.00;;;;;;;4.68;59.23;98333.38;1799807;79;26217;-86
2022/02/26 11:20:46;;;;;;;27.55;13.20;;;;;;;4.82;59.02;98329.34;1799561;79;25871;-85
2022/02/26 11:23:13;;;;;;;25.23;12.00;;;;;;;4.90;58.79;98318.71;1799944;79;28689;-87